Главная страница
METAR-TAF:

METAR-TAF

Аэропорты :

Багдад, Ирак

широта: 33-15-45N, долгота: 44-14-04E, высота над уровнем моря: 35 м

Текущие метеонаблюдения

Эта сводка был подготовлена 1 час и 2 минут назад, в 13:00 UTC
Ветер 9 Узел от северо-западный
Температура 15°C
Влажность 51%
Давление 1024 hPa
Видимость 10 км и более
Нет облачности ниже 1500 м, и нет кучево-дождевой облачности

METAR: ORBI 271300Z 31009KT CAVOK 15/05 Q1024 NOSIG

Время: 17:02 (14:02 UTC)

Прогноз

Эта сводка был подготовлена 4 часа и 2 минут назад, в 10:00 UTC
Прогноз действительный с 27-го 12 UTC до 28-го 12 UTC
Ветер 6 Узел от северо-западный
Видимость: 8000 м

TAF: ORBI 271000Z 2712/2812 32006KT 8000 NSC

Метеонаблюдения и прогнозы для более 4000 аэропортов (сводки METAR и TAF).

Имеющиеся станции представлены на карте желтыми и красными точками.

Чтобы увидеть название станции, наведите на нее мышь.

Затем щелкните, чтобы увидеть метеонаблюдения и метеопрогнозы.

Управление картой: чтобы увеличить масштаб, щелкните зеленые кнопки с черным крестиком; чтобы уменьшить масштаб, щелкните зеленую кнопку с тире; для просмотра соседних карт щелкайте зеленые стрелки.


METAR-TAF: